FTTH31 VTBU 010500
TAF VTBU 010500Z 0106/0206 19008KT 9999 FEW020
TEMPO 0106/0111 VRB12KT 5000 TSRA FEW018CB SCT030 BKN100=



FTTH31 VTSS 010500
TAF VTSS 010500Z 0106/0206 23008KT 9999 SCT020
TEMPO 0108/0114 VRB10G20KT 5000 TSRA FEW016CB SCT018 BKN100=
TAF VTSE 010500Z 0106/0206 15008KT 9999 SCT020
TEMPO 0106/0112 VRB10G20KT 5000 TSRA FEW016CB SCT018 BKN100=
TAF VTSM 010500Z 0106/0206 32008KT 9999 FEW020
PROB40 TEMPO 0109/0115 VRB10G20KT 5000 TSRA FEW016CB SCT018
BKN100=
TAF VTSB 010500Z 0106/0206 22008KT 9999 SCT020
PROB40 TEMPO 0107/0113 VRB10G20KT 5000 TSRA FEW016CB SCT018
BKN100=
TAF VTSF 010500Z 0106/0206 29008KT 9999 SCT020
TEMPO 0107/0113 VRB10G20KT 5000 TSRA FEW016CB SCT018 BKN100=
TAF VTSC 010500Z 0106/0206 07010KT 9999 FEW020
PROB30 TEMPO 0109/0115 VRB10G20KT 5000 TSRA FEW016CB SCT018
BKN100
BECMG 0115/0117 21003KT
BECMG 0204/0206 08010KT=



FTTH31 VTSP 010500
TAF VTSP 010500Z 0106/0212 28006KT 9999 SCT020
TEMPO 0108/0114 28010G25KT 5000 TSRA FEW018CB SCT020 BKN100
BECMG 0114/0116 00000KT
BECMG 0202/0204 28008KT
TEMPO 0206/0212 28010G25KT 5000 TSRA FEW018CB SCT020 BKN100=
TAF VTSG 010500Z 0106/0206 06006KT 9999 SCT020
TEMPO 0108/0114 22010G25KT 5000 TSRA FEW018CB SCT020 BKN100
BECMG 0114/0116 00000KT
BECMG 0122/0124 0800 FG
BECMG 0200/0202 9999 NSW=
TAF VTST 010500Z 0106/0206 06006KT 9999 SCT020
TEMPO 0108/0114 22010G25KT 5000 TSRA FEW018CB SCT020 BKN100
BECMG 0114/0116 00000KT
BECMG 0122/0124 0800 FG
BECMG 0200/0202 9999 NSW=
TAF VTSR 010500Z 0106/0206 32006KT 9999 SCT020
TEMPO 0108/0112 32010G25KT 5000 TSRA FEW018CB SCT020 BKN100
BECMG 0114/0116 00000KT
BECMG 0200/0202 32008KT=



FTTH31 VTUU 010500
TAF VTUU 010500Z 0106/0206 21005KT 9999 SCT030
TEMPO 0111/0113 VRB15KT 4500 TSRA FEW018CB BKN025=
TAF VTUO 010500Z 0106/0206 22005KT 9000 FEW030=
TAF VTUQ 010500Z 0106/0206 23005KT 9999 SCT025=
TAF VTUV 010500Z 0106/0206 24005KT 9999 SCT030
TEMPO 0110/0112 VRB15KT 4500 TSRA FEW018CB BKN025=



FTTH31 VTCC 010500
TAF VTCC 010500Z 0106/0212 20005KT 9999 SCT035
TEMPO 0107/0112 24015G25KT 4000 TSRA FEW020CB BKN025=
TAF VTCT 010500Z 0106/0212 18005KT 9999 SCT030
TEMPO 0107/0112 24015G25KT 4000 TSRA FEW020CB BKN025=
TAF VTCH 010500Z 0106/0206 20005KT 9999 SCT025
TEMPO 0107/0112 24015G25KT 4000 TSRA FEW020CB BKN025=
TAF VTCN 010500Z 0106/0206 20005KT 9999 SCT025
TEMPO 0107/0112 24015G25KT 4000 TSRA FEW020CB BKN025=
TAF VTCL 010500Z 0106/0206 20005KT 9999 SCT025
TEMPO 0107/0112 24015G25KT 4000 TSRA FEW020CB BKN025=
TAF VTCP 010500Z 0106/0206 22005KT 9999 SCT025
TEMPO 0108/0112 24015G25KT 4000 TSRA FEW020CB BKN025=
TAF VTPT 010500Z 0106/0206 24005KT 9999 SCT025
TEMPO 0108/0112 24015G25KT 4000 TSRA FEW020CB BKN025=
TAF VTPM 010500Z 0106/0206 26005KT 9999 SCT030
TEMPO 0107/0112 24015G25KT 4000 TSRA FEW020CB BKN025=
TAF VTPP 010500Z 0106/0206 18005KT 9999 SCT025
TEMPO 0109/0112 24015G25KT 4000 TSRA FEW020CB BKN025=
TAF VTPB 010500Z 0106/0206 20005KT 9999 SCT030
TEMPO 0108/0112 24015G25KT 4000 TSRA FEW020CB BKN025=
TAF VTPO 010500Z 0106/0206 20005KT 9999 SCT025
TEMPO 0109/0112 24015G25KT 4000 TSRA FEW020CB BKN025=



FTTH31 VTBS 010500
TAF VTBS 010500Z 0106/0212 20008KT 9000 FEW020 SCT080
TEMPO 0109/0114 23010G25KT 4000 TSRA FEW018CB SCT030 BKN080
TEMPO 0122/0203 23010G20KT 6000 -TSRA FEW018CB SCT030 BKN100=
TAF VTBD 010500Z 0106/0212 21008KT 9000 FEW020 SCT080
TEMPO 0109/0114 23010G25KT 4000 TSRA FEW018CB SCT030 BKN080
TEMPO 0122/0203 23010G20KT 6000 -TSRA FEW018CB SCT030 BKN100=
TAF VTBO 010500Z 0106/0206 21008KT 9000 FEW020 SCT100
TEMPO 0107/0112 22012KT 6000 -TSRA FEW018CB SCT030 BKN100
TEMPO 0121/0202 22015KT 5000 TSRA FEW018CB SCT030 BKN080=
TAF VTPH 010500Z 0106/0206 14008KT 9000 FEW020 SCT100
TEMPO 0107/0112 17012KT 6000 -TSRA FEW018CB SCT030 BKN100
BECMG 0114/0116 25005KT
BECMG 0118/0120 00000KT=



FTTH20 VTBB 010500
TAF VTBD 010500Z 0106/0212 21008KT 9000 FEW020 SCT080
TEMPO 0109/0114 23010G25KT 4000 TSRA FEW018CB SCT030 BKN080
TEMPO 0122/0203 23010G20KT 6000 -TSRA FEW018CB SCT030 BKN100=
TAF VTBS 010500Z 0106/0212 20008KT 9000 FEW020 SCT080
TEMPO 0109/0114 23010G25KT 4000 TSRA FEW018CB SCT030 BKN080
TEMPO 0122/0203 23010G20KT 6000 -TSRA FEW018CB SCT030 BKN100=
TAF VTBU 010500Z 0106/0206 19008KT 9999 FEW020
TEMPO 0106/0111 VRB12KT 5000 TSRA FEW018CB SCT030 BKN100=
TAF VTCC 010500Z 0106/0212 20005KT 9999 SCT035
TEMPO 0107/0112 24015G25KT 4000 TSRA FEW020CB BKN025=
TAF VTCT 010500Z 0106/0212 18005KT 9999 SCT030
TEMPO 0107/0112 24015G25KT 4000 TSRA FEW020CB BKN025=
TAF VTSB 010500Z 0106/0206 22008KT 9999 SCT020
PROB40 TEMPO 0107/0113 VRB10G20KT 5000 TSRA FEW016CB SCT018
BKN100=
TAF VTSG 010500Z 0106/0206 06006KT 9999 SCT020
TEMPO 0108/0114 22010G25KT 5000 TSRA FEW018CB SCT020 BKN100
BECMG 0114/0116 00000KT
BECMG 0122/0124 0800 FG
BECMG 0200/0202 9999 NSW=
TAF VTSP 010500Z 0106/0212 28006KT 9999 SCT020
TEMPO 0108/0114 28010G25KT 5000 TSRA FEW018CB SCT020 BKN100
BECMG 0114/0116 00000KT
BECMG 0202/0204 28008KT
TEMPO 0206/0212 28010G25KT 5000 TSRA FEW018CB SCT020 BKN100=
TAF VTSS 010500Z 0106/0206 23008KT 9999 SCT020
TEMPO 0108/0114 VRB10G20KT 5000 TSRA FEW016CB SCT018 BKN100=
TAF VTUD 010500Z 0106/0206 19005KT 9999 FEW030 SCT100
TEMPO 0107/0111 VRB15KT 4000 TSRA FEW018CB BKN020 BKN080
TEMPO 0117/0121 VRB15KT 6000 -TSRA FEW018CB BKN020 BKN080=
TAF VTUU 010500Z 0106/0206 21005KT 9999 SCT030
TEMPO 0111/0113 VRB15KT 4500 TSRA FEW018CB BKN025=




New Window